createdAt,value
2022-09-29T00:01:03.140Z,7.47
2022-09-29T00:03:29.870Z,7.37
2022-09-29T00:05:56.879Z,7.39
2022-09-29T00:08:27.670Z,7.47
2022-09-29T00:10:54.847Z,7.45
2022-09-29T00:13:22.076Z,7.52
2022-09-29T00:16:02.792Z,7.51
2022-09-29T00:18:32.125Z,7.55
2022-09-29T00:21:11.537Z,7.58
2022-09-29T00:23:38.735Z,7.64
2022-09-29T00:26:16.009Z,7.77
2022-09-29T00:28:49.374Z,7.84
2022-09-29T00:31:16.299Z,7.89
2022-09-29T00:33:42.975Z,7.87
2022-09-29T00:36:17.244Z,7.91
2022-09-29T00:38:49.403Z,7.86
2022-09-29T00:41:24.876Z,7.97
2022-09-29T00:44:04.914Z,8.02
2022-09-29T00:46:52.314Z,8.05
2022-09-29T00:49:46.886Z,8.14
2022-09-29T00:52:24.075Z,8.15
2022-09-29T00:55:16.766Z,8.15
2022-09-29T00:58:05.750Z,8.19
2022-09-29T01:00:32.562Z,8.22
2022-09-29T01:03:08.593Z,8.14
2022-09-29T01:05:44.251Z,8.14
2022-09-29T01:08:58.105Z,8.18
2022-09-29T01:11:25.393Z,8.21
2022-09-29T01:13:55.750Z,8.09
2022-09-29T01:16:22.359Z,8.15
2022-09-29T01:18:49.066Z,8.13
2022-09-29T01:21:36.528Z,8.21
2022-09-29T01:24:27.858Z,8.21
2022-09-29T01:27:20.478Z,8.06
2022-09-29T01:30:05.961Z,8.10
2022-09-29T01:33:00.436Z,8.11
2022-09-29T01:35:43.014Z,8.18
2022-09-29T01:38:47.937Z,8.09
2022-09-29T01:41:46.781Z,8.12
2022-09-29T01:44:26.810Z,8.09
2022-09-29T01:47:02.415Z,8.11
2022-09-29T01:49:36.151Z,8.03
2022-09-29T01:52:17.121Z,8.01
2022-09-29T01:54:57.141Z,8.11
2022-09-29T01:57:55.718Z,7.99
2022-09-29T02:00:24.194Z,8.06
2022-09-29T02:03:00.813Z,8.00
2022-09-29T02:05:44.249Z,7.97
2022-09-29T02:08:19.232Z,7.88
2022-09-29T02:10:59.489Z,7.88
2022-09-29T02:13:29.193Z,7.87
2022-09-29T02:15:59.089Z,7.99
2022-09-29T02:18:45.970Z,7.86
2022-09-29T02:21:12.538Z,7.89
2022-09-29T02:23:39.242Z,7.95
2022-09-29T02:26:06.301Z,8.00
2022-09-29T02:28:32.964Z,8.02
2022-09-29T02:31:00.405Z,7.96
2022-09-29T02:33:27.038Z,7.90
2022-09-29T02:36:23.748Z,7.93
2022-09-29T02:39:14.506Z,7.91
2022-09-29T02:42:12.391Z,7.92
2022-09-29T02:44:53.732Z,7.95
2022-09-29T02:47:57.671Z,7.98
2022-09-29T02:50:43.081Z,7.97
2022-09-29T02:53:37.812Z,8.00
2022-09-29T02:56:45.788Z,7.99
2022-09-29T02:59:22.177Z,7.91
2022-09-29T03:01:56.156Z,7.97
2022-09-29T03:04:27.129Z,7.96
2022-09-29T03:06:54.778Z,7.90
2022-09-29T03:09:21.441Z,7.99
2022-09-29T03:11:48.028Z,7.86
2022-09-29T03:14:14.738Z,7.96
2022-09-29T03:16:41.554Z,7.87
2022-09-29T03:19:08.158Z,7.92
2022-09-29T03:21:35.510Z,7.78
2022-09-29T03:24:02.263Z,7.82
2022-09-29T03:26:30.136Z,7.84
2022-09-29T03:28:57.053Z,7.77
2022-09-29T03:31:23.682Z,7.75
2022-09-29T03:33:50.336Z,7.81
2022-09-29T03:36:16.952Z,7.83
2022-09-29T03:38:45.492Z,7.79
2022-09-29T03:41:12.197Z,7.73
2022-09-29T03:43:38.881Z,7.86
2022-09-29T03:46:05.880Z,7.85
2022-09-29T03:48:34.999Z,8.00
2022-09-29T03:51:02.362Z,8.01
2022-09-29T03:53:28.958Z,8.06
2022-09-29T03:55:55.549Z,8.07
2022-09-29T03:58:22.139Z,8.04
2022-09-29T04:00:49.936Z,8.01
2022-09-29T04:03:17.072Z,8.03
2022-09-29T04:05:46.971Z,8.09
2022-09-29T04:08:15.017Z,8.04
2022-09-29T04:10:42.833Z,8.03
2022-09-29T04:13:09.836Z,8.04
2022-09-29T04:15:36.521Z,8.06
2022-09-29T04:18:03.177Z,8.04
2022-09-29T04:20:29.797Z,7.93
2022-09-29T04:22:56.336Z,7.91
2022-09-29T04:25:22.995Z,7.85
2022-09-29T04:27:49.541Z,7.92
2022-09-29T04:30:16.245Z,8.05
2022-09-29T04:32:42.997Z,8.03
2022-09-29T04:35:10.003Z,7.98
2022-09-29T04:37:36.944Z,7.85
2022-09-29T04:40:05.382Z,7.91
2022-09-29T04:42:32.010Z,7.87
2022-09-29T04:44:58.594Z,7.89
2022-09-29T04:47:25.425Z,7.88
2022-09-29T04:49:52.009Z,7.81
2022-09-29T04:52:18.584Z,7.93
2022-09-29T04:54:46.258Z,7.88
2022-09-29T04:57:12.949Z,8.00
2022-09-29T04:59:39.472Z,8.01
2022-09-29T05:02:06.099Z,7.95
2022-09-29T05:04:32.664Z,7.86
2022-09-29T05:06:59.226Z,7.83
2022-09-29T05:09:28.731Z,7.91
2022-09-29T05:11:57.873Z,7.88
2022-09-29T05:14:24.431Z,7.87
2022-09-29T05:16:51.040Z,7.87
2022-09-29T05:19:17.659Z,7.89
2022-09-29T05:21:44.294Z,7.77
2022-09-29T05:24:10.862Z,7.93
2022-09-29T05:26:37.460Z,7.88
2022-09-29T05:29:04.086Z,7.84
2022-09-29T05:31:30.973Z,7.76
2022-09-29T05:33:58.109Z,7.67
2022-09-29T05:36:25.101Z,7.68
2022-09-29T05:38:51.987Z,7.55
2022-09-29T05:41:22.389Z,7.58
2022-09-29T05:43:53.805Z,7.60
2022-09-29T05:46:22.229Z,7.54
2022-09-29T05:48:53.265Z,7.66
2022-09-29T05:51:23.655Z,7.64
2022-09-29T05:53:51.933Z,7.59
2022-09-29T05:56:25.664Z,7.61
2022-09-29T05:58:53.863Z,7.71
2022-09-29T06:01:25.183Z,7.67
2022-09-29T06:03:55.036Z,7.82
2022-09-29T06:06:26.091Z,7.83
2022-09-29T06:08:53.578Z,7.72
2022-09-29T06:11:27.784Z,7.90
2022-09-29T06:13:55.716Z,7.91
2022-09-29T06:16:26.525Z,7.86
2022-09-29T06:18:53.660Z,7.93
2022-09-29T06:21:24.066Z,7.97
2022-09-29T06:23:51.942Z,7.92
2022-09-29T06:26:23.902Z,7.91
2022-09-29T06:28:51.934Z,7.88
2022-09-29T06:31:22.152Z,7.93
2022-09-29T06:33:48.870Z,7.84
2022-09-29T06:36:50.101Z,8.02
2022-09-29T06:39:17.478Z,7.94
2022-09-29T06:41:48.682Z,8.01
2022-09-29T06:44:15.983Z,8.12
2022-09-29T06:46:42.613Z,8.02
2022-09-29T06:49:12.962Z,8.19
2022-09-29T06:51:45.902Z,8.33
2022-09-29T06:54:18.712Z,8.52
2022-09-29T06:56:51.913Z,8.80
2022-09-29T06:59:18.746Z,8.69
2022-09-29T07:01:49.542Z,8.82
2022-09-29T07:04:16.961Z,8.92
2022-09-29T07:06:45.671Z,8.98
2022-09-29T07:09:16.211Z,9.06
2022-09-29T07:11:46.583Z,9.44
2022-09-29T07:14:17.776Z,9.63
2022-09-29T07:16:44.802Z,9.81
2022-09-29T07:19:11.447Z,9.74
2022-09-29T07:21:37.995Z,9.65
2022-09-29T07:24:04.726Z,9.74
2022-09-29T07:26:31.402Z,9.82
2022-09-29T07:28:58.057Z,10.02
2022-09-29T07:31:25.121Z,10.00
2022-09-29T07:33:53.099Z,10.25
2022-09-29T07:36:21.485Z,10.47
2022-09-29T07:38:50.865Z,10.45
2022-09-29T07:41:21.301Z,10.63
2022-09-29T07:43:48.602Z,10.77
2022-09-29T07:46:15.473Z,10.70
2022-09-29T07:48:43.182Z,10.79
2022-09-29T07:51:15.642Z,10.61
2022-09-29T07:53:42.829Z,10.35
2022-09-29T07:56:20.030Z,10.32
2022-09-29T07:58:49.892Z,10.41
2022-09-29T08:01:19.352Z,10.43
2022-09-29T08:03:54.981Z,10.56
2022-09-29T08:06:24.404Z,10.45
2022-09-29T08:09:02.684Z,10.76
2022-09-29T08:11:32.664Z,10.67
2022-09-29T08:14:01.111Z,10.63
2022-09-29T08:16:28.421Z,10.94
2022-09-29T08:18:55.063Z,11.09
2022-09-29T08:21:21.659Z,11.34
2022-09-29T08:23:48.313Z,11.82
2022-09-29T08:26:20.090Z,11.69
2022-09-29T08:29:01.767Z,11.83
2022-09-29T08:31:33.980Z,11.94
2022-09-29T08:34:00.602Z,12.12
2022-09-29T08:36:27.317Z,12.42
2022-09-29T08:38:57.931Z,12.71
2022-09-29T08:41:54.313Z,12.47
2022-09-29T08:44:41.644Z,12.02
2022-09-29T08:47:15.448Z,11.96
2022-09-29T08:49:53.010Z,12.00
2022-09-29T08:52:27.062Z,11.78
2022-09-29T08:55:20.327Z,11.74
2022-09-29T08:57:53.713Z,11.75
2022-09-29T09:00:23.930Z,11.90
2022-09-29T09:03:16.770Z,11.94
2022-09-29T09:06:02.257Z,12.17
2022-09-29T09:08:34.610Z,12.03
2022-09-29T09:11:06.694Z,12.09
2022-09-29T09:13:58.120Z,12.15
2022-09-29T09:16:48.683Z,12.28
2022-09-29T09:19:44.081Z,12.72
2022-09-29T09:22:13.637Z,13.18
2022-09-29T09:24:46.735Z,13.15
2022-09-29T09:27:23.384Z,13.16
2022-09-29T09:30:03.345Z,13.48
2022-09-29T09:32:40.822Z,13.42
2022-09-29T09:35:29.984Z,13.43
2022-09-29T09:38:04.625Z,13.72
2022-09-29T09:40:45.169Z,13.77
2022-09-29T09:43:22.824Z,13.83
2022-09-29T09:46:13.456Z,13.85
2022-09-29T09:48:56.308Z,13.76
2022-09-29T09:51:50.768Z,13.97
2022-09-29T09:54:33.243Z,14.06
2022-09-29T09:57:18.037Z,14.04
2022-09-29T10:00:14.524Z,13.84
2022-09-29T10:02:49.421Z,13.71
2022-09-29T10:05:20.597Z,14.01
2022-09-29T10:07:50.676Z,14.14
2022-09-29T10:10:28.579Z,13.99
2022-09-29T10:13:14.723Z,13.93
2022-09-29T10:16:09.125Z,14.38
2022-09-29T10:18:53.755Z,14.51
2022-09-29T10:21:26.162Z,14.43
2022-09-29T10:23:58.147Z,14.34
2022-09-29T10:26:47.615Z,13.92
2022-09-29T10:29:39.996Z,13.96
2022-09-29T10:32:36.524Z,13.96
2022-09-29T10:35:18.052Z,14.06
2022-09-29T10:38:00.138Z,14.43
2022-09-29T10:40:27.056Z,14.17
2022-09-29T10:42:53.952Z,14.05
2022-09-29T10:45:30.145Z,14.31
2022-09-29T10:47:59.504Z,14.33
2022-09-29T10:50:49.877Z,14.25
2022-09-29T10:53:28.535Z,14.02
2022-09-29T10:56:07.149Z,14.27
2022-09-29T10:58:52.548Z,14.33
2022-09-29T11:01:31.341Z,14.40
2022-09-29T11:04:04.249Z,14.33
2022-09-29T11:06:42.981Z,14.09
2022-09-29T11:09:36.046Z,14.13
2022-09-29T11:12:07.376Z,14.28
2022-09-29T11:14:38.729Z,14.54
2022-09-29T11:20:37.537Z,14.54
2022-09-29T11:23:10.351Z,14.65
2022-09-29T11:25:48.799Z,14.75
2022-09-29T11:28:48.070Z,14.62
2022-09-29T11:31:43.836Z,14.72
2022-09-29T11:34:45.229Z,14.55
2022-09-29T11:37:24.242Z,14.39
2022-09-29T11:40:55.328Z,14.23
2022-09-29T11:43:38.306Z,14.30
2022-09-29T11:46:45.231Z,14.32
2022-09-29T11:49:42.588Z,14.55
2022-09-29T11:52:40.067Z,14.59
2022-09-29T11:55:33.431Z,14.46
2022-09-29T11:58:22.567Z,14.53
2022-09-29T12:01:02.004Z,14.47
2022-09-29T12:03:43.876Z,14.57
2022-09-29T12:06:33.224Z,14.64
2022-09-29T12:09:13.645Z,14.53
2022-09-29T12:12:25.491Z,14.63
2022-09-29T12:15:31.384Z,14.64
2022-09-29T12:18:11.197Z,14.46
2022-09-29T12:20:45.318Z,14.38
2022-09-29T12:23:19.193Z,14.37
2022-09-29T12:26:15.710Z,14.34
2022-09-29T12:29:05.928Z,14.30
2022-09-29T12:31:43.372Z,14.25
2022-09-29T12:34:29.677Z,14.43
2022-09-29T12:37:17.518Z,14.43
2022-09-29T12:40:19.555Z,14.49
2022-09-29T12:43:17.207Z,14.52
2022-09-29T12:46:06.352Z,14.54
2022-09-29T12:49:37.229Z,14.51
2022-09-29T12:52:18.977Z,14.45
2022-09-29T12:55:01.994Z,14.43
2022-09-29T12:57:38.460Z,14.59
2022-09-29T13:00:09.651Z,14.65
2022-09-29T13:03:11.065Z,14.60
2022-09-29T13:06:17.961Z,14.60
2022-09-29T13:09:29.599Z,14.71
2022-09-29T13:12:18.947Z,14.65
2022-09-29T13:15:09.570Z,14.58
2022-09-29T13:17:58.291Z,14.69
2022-09-29T13:20:43.679Z,14.84
2022-09-29T13:23:33.165Z,14.85
2022-09-29T13:26:34.081Z,14.74
2022-09-29T13:29:10.746Z,14.76
2022-09-29T13:34:37.542Z,14.50
2022-09-29T13:37:18.650Z,14.45
2022-09-29T13:40:11.478Z,14.39
2022-09-29T13:42:55.627Z,14.31
2022-09-29T13:45:29.286Z,14.39
2022-09-29T13:48:02.026Z,14.39
2022-09-29T13:50:45.684Z,14.28
2022-09-29T13:53:42.304Z,14.07
2022-09-29T13:56:20.592Z,13.84
2022-09-29T13:58:47.162Z,13.73
2022-09-29T14:01:36.636Z,13.53
2022-09-29T14:05:09.815Z,13.45
2022-09-29T14:08:14.016Z,13.23
2022-09-29T14:10:50.919Z,13.15
2022-09-29T14:13:46.649Z,13.09
2022-09-29T14:16:42.234Z,13.04
2022-09-29T14:19:39.848Z,13.05
2022-09-29T14:22:26.337Z,13.03
2022-09-29T14:24:55.839Z,13.07
2022-09-29T14:27:28.317Z,13.01
2022-09-29T14:30:10.042Z,13.00
2022-09-29T14:32:46.811Z,12.92
2022-09-29T14:35:27.766Z,12.91
2022-09-29T14:38:21.797Z,12.95
2022-09-29T14:41:11.872Z,12.95
2022-09-29T14:44:01.526Z,13.02
2022-09-29T14:46:58.623Z,13.03
2022-09-29T14:50:20.575Z,13.05
2022-09-29T14:53:21.102Z,13.10
2022-09-29T14:56:28.593Z,13.07
2022-09-29T14:59:32.731Z,13.01
2022-09-29T15:02:25.304Z,12.96
2022-09-29T15:04:52.443Z,12.92
2022-09-29T15:07:24.325Z,12.89
2022-09-29T15:09:59.717Z,12.85
2022-09-29T15:12:31.626Z,12.80
2022-09-29T15:15:00.174Z,12.65
2022-09-29T15:17:55.331Z,12.66
2022-09-29T15:20:55.883Z,12.63
2022-09-29T15:23:49.391Z,12.50
2022-09-29T15:26:18.680Z,12.63
2022-09-29T15:28:45.815Z,12.59
2022-09-29T15:31:26.894Z,12.47
2022-09-29T15:33:54.238Z,12.52
2022-09-29T15:36:25.366Z,12.55
2022-09-29T15:39:05.624Z,12.56
2022-09-29T15:41:35.259Z,12.46
2022-09-29T15:44:18.071Z,12.39
2022-09-29T15:46:52.591Z,12.41
2022-09-29T15:49:25.502Z,12.45
2022-09-29T15:52:05.565Z,12.47
2022-09-29T15:54:39.617Z,12.49
2022-09-29T15:57:25.496Z,12.50
2022-09-29T15:59:55.691Z,12.50
2022-09-29T16:02:39.560Z,12.45
2022-09-29T16:05:15.478Z,12.50
2022-09-29T16:07:59.650Z,12.55
2022-09-29T16:10:40.750Z,12.38
2022-09-29T16:13:15.236Z,12.41
2022-09-29T16:15:48.943Z,12.37
2022-09-29T16:18:26.278Z,12.29
2022-09-29T16:20:59.916Z,12.26
2022-09-29T16:23:37.642Z,12.35
2022-09-29T16:26:07.261Z,12.33
2022-09-29T16:28:40.045Z,12.27
2022-09-29T16:31:22.604Z,12.27
2022-09-29T16:34:01.829Z,12.31
2022-09-29T16:36:36.753Z,12.31
2022-09-29T16:39:06.845Z,12.27
2022-09-29T16:41:40.562Z,12.20
2022-09-29T16:44:18.387Z,12.05
2022-09-29T16:47:10.960Z,11.98
2022-09-29T16:50:14.420Z,12.08
2022-09-29T16:52:48.197Z,11.98
2022-09-29T16:55:28.006Z,12.11
2022-09-29T16:58:13.171Z,12.02
2022-09-29T17:00:40.969Z,12.00
2022-09-29T17:03:08.530Z,11.91
2022-09-29T17:05:43.626Z,11.88
2022-09-29T17:08:31.175Z,11.90
2022-09-29T17:10:58.052Z,11.85
2022-09-29T17:13:28.604Z,11.78
2022-09-29T17:15:55.236Z,11.73
2022-09-29T17:18:23.113Z,11.74
2022-09-29T17:20:49.720Z,11.67
2022-09-29T17:23:16.377Z,11.63
2022-09-29T17:25:46.291Z,11.61
2022-09-29T17:28:26.587Z,11.65
2022-09-29T17:30:55.848Z,11.56
2022-09-29T17:33:23.614Z,11.48
2022-09-29T17:35:55.826Z,11.49
2022-09-29T17:38:23.952Z,11.37
2022-09-29T17:41:02.363Z,11.32
2022-09-29T17:43:31.341Z,11.22
2022-09-29T17:46:01.678Z,11.32
2022-09-29T17:48:30.530Z,11.11
2022-09-29T17:51:02.401Z,11.11
2022-09-29T17:53:29.082Z,11.02
2022-09-29T17:55:57.897Z,10.92
2022-09-29T17:58:25.366Z,10.82
2022-09-29T18:00:54.855Z,10.84
2022-09-29T18:03:22.047Z,10.85
2022-09-29T18:05:56.465Z,10.90
2022-09-29T18:08:27.131Z,10.94
2022-09-29T18:10:58.141Z,10.96
2022-09-29T18:13:31.586Z,10.93
2022-09-29T18:16:03.025Z,10.97
2022-09-29T18:18:29.685Z,10.95
2022-09-29T18:20:56.491Z,10.90
2022-09-29T18:23:26.549Z,10.80
2022-09-29T18:25:54.003Z,10.70
2022-09-29T18:28:29.585Z,10.52
2022-09-29T18:31:20.092Z,10.45
2022-09-29T18:33:54.383Z,10.63
2022-09-29T18:36:21.598Z,10.70
2022-09-29T18:38:48.328Z,10.74
2022-09-29T18:41:20.048Z,10.75
2022-09-29T18:43:48.169Z,10.85
2022-09-29T18:46:15.580Z,10.86
2022-09-29T18:48:42.386Z,10.90
2022-09-29T18:51:13.372Z,10.78
2022-09-29T18:53:42.007Z,10.73
2022-09-29T18:56:19.159Z,10.69
2022-09-29T18:58:45.818Z,10.78
2022-09-29T19:01:25.193Z,10.75
2022-09-29T19:03:51.808Z,10.89
2022-09-29T19:06:18.526Z,11.01
2022-09-29T19:08:48.971Z,11.09
2022-09-29T19:11:22.567Z,10.90
2022-09-29T19:13:55.072Z,10.99
2022-09-29T19:16:23.848Z,11.01
2022-09-29T19:18:50.534Z,10.89
2022-09-29T19:21:18.288Z,10.89
2022-09-29T19:23:48.222Z,10.76
2022-09-29T19:26:20.303Z,10.79
2022-09-29T19:28:48.092Z,10.67
2022-09-29T19:31:19.890Z,10.72
2022-09-29T19:33:48.145Z,10.65
2022-09-29T19:36:19.832Z,10.61
2022-09-29T19:38:47.933Z,10.49
2022-09-29T19:41:22.878Z,10.48
2022-09-29T19:43:50.255Z,10.39
2022-09-29T19:46:19.207Z,10.38
2022-09-29T19:48:45.903Z,10.30
2022-09-29T19:51:36.742Z,10.35
2022-09-29T19:54:18.928Z,10.35
2022-09-29T19:57:02.903Z,10.38
2022-09-29T19:59:33.197Z,10.40
2022-09-29T20:02:01.485Z,10.37
2022-09-29T20:04:35.211Z,10.35
2022-09-29T20:07:04.234Z,10.38
2022-09-29T20:09:32.604Z,10.45
2022-09-29T20:12:00.057Z,10.37
2022-09-29T20:14:28.360Z,10.36
2022-09-29T20:16:57.674Z,10.23
2022-09-29T20:19:25.428Z,10.21
2022-09-29T20:21:53.785Z,10.25
2022-09-29T20:24:27.010Z,10.26
2022-09-29T20:26:57.856Z,10.15
2022-09-29T20:29:25.124Z,10.09
2022-09-29T20:31:53.371Z,10.04
2022-09-29T20:34:22.195Z,9.97
2022-09-29T20:36:54.437Z,9.79
2022-09-29T20:39:21.684Z,9.72
2022-09-29T20:41:49.545Z,9.71
2022-09-29T20:44:19.815Z,9.73
2022-09-29T20:46:46.661Z,9.70
2022-09-29T20:49:14.111Z,9.71
2022-09-29T20:51:40.675Z,9.75
2022-09-29T20:54:11.880Z,9.72
2022-09-29T20:56:42.000Z,9.79
2022-09-29T20:59:18.603Z,9.82
2022-09-29T21:01:45.564Z,9.81
2022-09-29T21:04:15.924Z,9.81
2022-09-29T21:06:48.739Z,9.93
2022-09-29T21:09:21.853Z,9.96
2022-09-29T21:11:51.226Z,9.94
2022-09-29T21:14:21.767Z,9.86
2022-09-29T21:16:51.639Z,9.80
2022-09-29T21:19:23.891Z,9.83
2022-09-29T21:21:50.959Z,9.74
2022-09-29T21:24:18.160Z,9.63
2022-09-29T21:26:44.720Z,9.67
2022-09-29T21:29:19.056Z,9.71
2022-09-29T21:31:46.175Z,9.68
2022-09-29T21:34:15.052Z,9.68
2022-09-29T21:36:42.364Z,9.58
2022-09-29T21:39:09.462Z,9.39
2022-09-29T21:41:42.826Z,9.12
2022-09-29T21:44:24.155Z,8.95
2022-09-29T21:46:51.172Z,8.76
2022-09-29T21:49:19.348Z,8.84
2022-09-29T21:51:49.459Z,8.81
2022-09-29T21:54:27.379Z,9.04
2022-09-29T21:56:53.968Z,9.09
2022-09-29T21:59:22.536Z,9.18
2022-09-29T22:01:52.749Z,9.23
2022-09-29T22:04:20.825Z,9.11
2022-09-29T22:06:47.593Z,9.16
2022-09-29T22:09:20.583Z,9.28
2022-09-29T22:11:49.906Z,9.15
2022-09-29T22:14:18.036Z,9.19
2022-09-29T22:16:44.877Z,8.98
2022-09-29T22:19:22.872Z,8.79
2022-09-29T22:21:58.848Z,8.53
2022-09-29T22:24:27.363Z,8.53
2022-09-29T22:26:54.415Z,8.62
2022-09-29T22:29:21.059Z,8.67
2022-09-29T22:31:47.912Z,8.81
2022-09-29T22:34:14.782Z,8.94
2022-09-29T22:36:41.426Z,8.98
2022-09-29T22:39:08.318Z,8.90
2022-09-29T22:41:39.518Z,8.94
2022-09-29T22:44:07.684Z,9.05
2022-09-29T22:46:35.299Z,8.99
2022-09-29T22:49:02.094Z,9.05
2022-09-29T22:51:28.706Z,9.06
2022-09-29T22:53:55.277Z,9.00
2022-09-29T22:56:28.454Z,8.95
2022-09-29T22:59:01.304Z,8.86
2022-09-29T23:01:28.326Z,8.84
2022-09-29T23:03:55.053Z,8.72
2022-09-29T23:06:21.720Z,8.74
2022-09-29T23:08:48.283Z,8.78
2022-09-29T23:11:17.883Z,8.81
2022-09-29T23:13:45.751Z,8.85
2022-09-29T23:16:14.874Z,8.92
2022-09-29T23:18:45.882Z,8.79
2022-09-29T23:21:19.822Z,8.89
2022-09-29T23:23:56.219Z,8.69
2022-09-29T23:26:25.419Z,8.21
2022-09-29T23:28:53.171Z,7.98
2022-09-29T23:31:19.868Z,8.06
2022-09-29T23:33:53.003Z,8.20
2022-09-29T23:36:19.664Z,8.36
2022-09-29T23:39:04.987Z,8.38
2022-09-29T23:41:33.123Z,8.49
2022-09-29T23:44:04.327Z,8.56
2022-09-29T23:46:34.348Z,8.56
2022-09-29T23:49:09.475Z,8.66
2022-09-29T23:51:40.482Z,8.60
2022-09-29T23:54:08.930Z,8.62
2022-09-29T23:56:36.635Z,8.48
2022-09-29T23:59:05.100Z,8.28
